sensor_id;sensor_type;location;lat;lon;timestamp;temperature;humidity
11836;DHT22;5977;51.972;7.640;2023-04-03T00:01:13;16.90;60.00
11836;DHT22;5977;51.972;7.640;2023-04-03T00:03:41;16.90;60.30
11836;DHT22;5977;51.972;7.640;2023-04-03T00:06:10;17.00;60.20
11836;DHT22;5977;51.972;7.640;2023-04-03T00:08:39;16.90;60.10
11836;DHT22;5977;51.972;7.640;2023-04-03T00:11:08;16.80;59.80
11836;DHT22;5977;51.972;7.640;2023-04-03T00:13:38;16.90;60.60
11836;DHT22;5977;51.972;7.640;2023-04-03T00:16:07;16.90;60.70
11836;DHT22;5977;51.972;7.640;2023-04-03T00:18:35;16.90;60.00
11836;DHT22;5977;51.972;7.640;2023-04-03T00:21:04;16.80;59.90
11836;DHT22;5977;51.972;7.640;2023-04-03T00:23:33;16.90;60.10
11836;DHT22;5977;51.972;7.640;2023-04-03T00:26:01;16.80;59.70
11836;DHT22;5977;51.972;7.640;2023-04-03T00:28:29;16.80;60.50
11836;DHT22;5977;51.972;7.640;2023-04-03T00:30:59;16.70;59.70
11836;DHT22;5977;51.972;7.640;2023-04-03T00:33:27;16.80;60.00
11836;DHT22;5977;51.972;7.640;2023-04-03T00:35:54;16.90;60.30
11836;DHT22;5977;51.972;7.640;2023-04-03T00:38:22;16.70;60.10
11836;DHT22;5977;51.972;7.640;2023-04-03T00:40:50;16.70;60.40
11836;DHT22;5977;51.972;7.640;2023-04-03T00:43:21;16.60;60.40
11836;DHT22;5977;51.972;7.640;2023-04-03T00:45:50;16.60;60.50
11836;DHT22;5977;51.972;7.640;2023-04-03T00:48:21;16.60;60.40
11836;DHT22;5977;51.972;7.640;2023-04-03T00:50:50;16.70;60.30
11836;DHT22;5977;51.972;7.640;2023-04-03T00:53:22;16.80;60.00
11836;DHT22;5977;51.972;7.640;2023-04-03T00:55:51;16.70;60.00
11836;DHT22;5977;51.972;7.640;2023-04-03T00:58:21;16.70;60.40
11836;DHT22;5977;51.972;7.640;2023-04-03T01:00:54;16.70;60.80
11836;DHT22;5977;51.972;7.640;2023-04-03T01:03:25;16.70;59.60
11836;DHT22;5977;51.972;7.640;2023-04-03T01:05:54;16.70;60.10
11836;DHT22;5977;51.972;7.640;2023-04-03T01:08:22;16.60;59.90
11836;DHT22;5977;51.972;7.640;2023-04-03T01:10:50;16.60;59.80
11836;DHT22;5977;51.972;7.640;2023-04-03T01:13:24;16.60;61.10
11836;DHT22;5977;51.972;7.640;2023-04-03T01:15:53;16.70;60.20
11836;DHT22;5977;51.972;7.640;2023-04-03T01:18:21;16.60;60.30
11836;DHT22;5977;51.972;7.640;2023-04-03T01:21:23;16.50;60.60
11836;DHT22;5977;51.972;7.640;2023-04-03T01:24:19;16.50;60.20
11836;DHT22;5977;51.972;7.640;2023-04-03T01:26:49;16.50;60.90
11836;DHT22;5977;51.972;7.640;2023-04-03T01:29:18;16.50;60.70
11836;DHT22;5977;51.972;7.640;2023-04-03T01:31:50;16.30;60.60
11836;DHT22;5977;51.972;7.640;2023-04-03T01:34:19;16.30;60.30
11836;DHT22;5977;51.972;7.640;2023-04-03T01:36:48;16.30;61.30
11836;DHT22;5977;51.972;7.640;2023-04-03T01:39:17;16.30;60.90
11836;DHT22;5977;51.972;7.640;2023-04-03T01:41:45;16.40;61.30
11836;DHT22;5977;51.972;7.640;2023-04-03T01:44:19;16.40;60.80
11836;DHT22;5977;51.972;7.640;2023-04-03T01:46:49;16.40;60.10
11836;DHT22;5977;51.972;7.640;2023-04-03T01:49:17;16.40;60.00
11836;DHT22;5977;51.972;7.640;2023-04-03T01:51:45;16.40;60.60
11836;DHT22;5977;51.972;7.640;2023-04-03T01:54:14;16.60;60.60
11836;DHT22;5977;51.972;7.640;2023-04-03T01:56:41;16.60;60.60
11836;DHT22;5977;51.972;7.640;2023-04-03T01:59:10;16.50;59.90
11836;DHT22;5977;51.972;7.640;2023-04-03T02:01:38;16.60;60.20
11836;DHT22;5977;51.972;7.640;2023-04-03T02:04:07;16.40;59.70
11836;DHT22;5977;51.972;7.640;2023-04-03T02:06:35;16.50;59.80
11836;DHT22;5977;51.972;7.640;2023-04-03T02:09:03;16.30;58.70
11836;DHT22;5977;51.972;7.640;2023-04-03T02:11:31;16.30;59.60
11836;DHT22;5977;51.972;7.640;2023-04-03T02:14:00;16.40;58.90
11836;DHT22;5977;51.972;7.640;2023-04-03T02:16:28;16.60;59.70
11836;DHT22;5977;51.972;7.640;2023-04-03T02:18:57;16.80;60.60
11836;DHT22;5977;51.972;7.640;2023-04-03T02:21:26;17.00;59.70
11836;DHT22;5977;51.972;7.640;2023-04-03T02:23:54;17.10;59.50
11836;DHT22;5977;51.972;7.640;2023-04-03T02:26:23;17.20;59.50
11836;DHT22;5977;51.972;7.640;2023-04-03T02:28:51;17.10;59.40
11836;DHT22;5977;51.972;7.640;2023-04-03T02:31:19;17.00;59.20
11836;DHT22;5977;51.972;7.640;2023-04-03T02:33:47;16.90;59.80
11836;DHT22;5977;51.972;7.640;2023-04-03T02:36:16;16.80;59.00
11836;DHT22;5977;51.972;7.640;2023-04-03T02:38:51;16.90;59.70
11836;DHT22;5977;51.972;7.640;2023-04-03T02:41:19;16.70;59.30
11836;DHT22;5977;51.972;7.640;2023-04-03T02:43:49;16.70;58.90
11836;DHT22;5977;51.972;7.640;2023-04-03T02:46:17;16.50;59.50
11836;DHT22;5977;51.972;7.640;2023-04-03T02:48:45;16.30;59.10
11836;DHT22;5977;51.972;7.640;2023-04-03T02:51:13;16.30;59.30
11836;DHT22;5977;51.972;7.640;2023-04-03T02:53:40;16.30;59.70
11836;DHT22;5977;51.972;7.640;2023-04-03T02:56:15;16.30;60.00
11836;DHT22;5977;51.972;7.640;2023-04-03T02:58:43;16.50;60.50
11836;DHT22;5977;51.972;7.640;2023-04-03T03:01:11;16.50;59.50
11836;DHT22;5977;51.972;7.640;2023-04-03T03:03:40;16.60;60.50
11836;DHT22;5977;51.972;7.640;2023-04-03T03:06:09;16.60;60.10
11836;DHT22;5977;51.972;7.640;2023-04-03T03:08:39;16.60;60.00
11836;DHT22;5977;51.972;7.640;2023-04-03T03:11:07;16.40;59.20
11836;DHT22;5977;51.972;7.640;2023-04-03T03:13:37;16.30;59.60
11836;DHT22;5977;51.972;7.640;2023-04-03T03:16:05;16.40;60.20
11836;DHT22;5977;51.972;7.640;2023-04-03T03:18:34;16.30;59.70
11836;DHT22;5977;51.972;7.640;2023-04-03T03:21:03;16.50;59.90
11836;DHT22;5977;51.972;7.640;2023-04-03T03:23:32;16.50;59.90
11836;DHT22;5977;51.972;7.640;2023-04-03T03:26:02;16.60;60.30
11836;DHT22;5977;51.972;7.640;2023-04-03T03:28:30;16.70;60.30
11836;DHT22;5977;51.972;7.640;2023-04-03T03:31:00;16.60;59.70
11836;DHT22;5977;51.972;7.640;2023-04-03T03:33:29;16.60;59.40
11836;DHT22;5977;51.972;7.640;2023-04-03T03:35:57;16.70;59.90
11836;DHT22;5977;51.972;7.640;2023-04-03T03:38:25;16.80;60.00
11836;DHT22;5977;51.972;7.640;2023-04-03T03:40:53;16.70;60.20
11836;DHT22;5977;51.972;7.640;2023-04-03T03:43:23;16.70;60.30
11836;DHT22;5977;51.972;7.640;2023-04-03T03:45:53;16.90;59.70
11836;DHT22;5977;51.972;7.640;2023-04-03T03:48:24;17.00;59.70
11836;DHT22;5977;51.972;7.640;2023-04-03T03:50:52;16.90;59.40
11836;DHT22;5977;51.972;7.640;2023-04-03T03:53:24;16.90;59.70
11836;DHT22;5977;51.972;7.640;2023-04-03T03:55:55;17.00;59.40
11836;DHT22;5977;51.972;7.640;2023-04-03T03:58:25;17.00;59.60
11836;DHT22;5977;51.972;7.640;2023-04-03T04:00:53;17.00;59.60
11836;DHT22;5977;51.972;7.640;2023-04-03T04:03:21;17.00;59.70
11836;DHT22;5977;51.972;7.640;2023-04-03T04:05:52;17.00;59.50
11836;DHT22;5977;51.972;7.640;2023-04-03T04:08:20;16.90;59.70
11836;DHT22;5977;51.972;7.640;2023-04-03T04:10:48;16.90;59.50
11836;DHT22;5977;51.972;7.640;2023-04-03T04:13:17;16.80;59.90
11836;DHT22;5977;51.972;7.640;2023-04-03T04:15:46;16.60;59.30
11836;DHT22;5977;51.972;7.640;2023-04-03T04:18:15;16.70;59.40
11836;DHT22;5977;51.972;7.640;2023-04-03T04:20:46;16.50;59.10
11836;DHT22;5977;51.972;7.640;2023-04-03T04:23:18;16.40;60.00
11836;DHT22;5977;51.972;7.640;2023-04-03T04:25:48;16.50;59.50
11836;DHT22;5977;51.972;7.640;2023-04-03T04:28:17;16.40;59.70
11836;DHT22;5977;51.972;7.640;2023-04-03T04:30:47;16.40;59.90
11836;DHT22;5977;51.972;7.640;2023-04-03T04:33:16;16.50;60.40
11836;DHT22;5977;51.972;7.640;2023-04-03T04:35:47;16.40;59.10
11836;DHT22;5977;51.972;7.640;2023-04-03T04:38:17;16.40;59.40
11836;DHT22;5977;51.972;7.640;2023-04-03T04:40:47;16.30;59.70
11836;DHT22;5977;51.972;7.640;2023-04-03T04:43:15;16.40;59.40
11836;DHT22;5977;51.972;7.640;2023-04-03T04:45:46;16.30;59.90
11836;DHT22;5977;51.972;7.640;2023-04-03T04:48:17;16.20;59.10
11836;DHT22;5977;51.972;7.640;2023-04-03T04:50:45;16.10;59.20
11836;DHT22;5977;51.972;7.640;2023-04-03T04:53:13;15.90;59.90
11836;DHT22;5977;51.972;7.640;2023-04-03T04:55:43;16.00;60.50
11836;DHT22;5977;51.972;7.640;2023-04-03T04:58:11;16.30;61.10
11836;DHT22;5977;51.972;7.640;2023-04-03T05:00:39;16.60;60.40
11836;DHT22;5977;51.972;7.640;2023-04-03T05:03:07;16.70;60.00
11836;DHT22;5977;51.972;7.640;2023-04-03T05:05:35;16.90;59.60
11836;DHT22;5977;51.972;7.640;2023-04-03T05:08:04;17.00;59.70
11836;DHT22;5977;51.972;7.640;2023-04-03T05:10:32;16.80;59.40
11836;DHT22;5977;51.972;7.640;2023-04-03T05:13:02;16.90;59.10
11836;DHT22;5977;51.972;7.640;2023-04-03T05:15:31;16.80;58.80
11836;DHT22;5977;51.972;7.640;2023-04-03T05:17:59;16.60;59.10
11836;DHT22;5977;51.972;7.640;2023-04-03T05:20:27;16.90;59.90
11836;DHT22;5977;51.972;7.640;2023-04-03T05:22:55;16.70;58.90
11836;DHT22;5977;51.972;7.640;2023-04-03T05:25:23;16.50;58.80
11836;DHT22;5977;51.972;7.640;2023-04-03T05:27:53;16.50;59.50
11836;DHT22;5977;51.972;7.640;2023-04-03T05:30:23;16.60;59.10
11836;DHT22;5977;51.972;7.640;2023-04-03T05:32:51;16.40;58.50
11836;DHT22;5977;51.972;7.640;2023-04-03T05:35:27;16.30;58.50
11836;DHT22;5977;51.972;7.640;2023-04-03T05:37:58;16.30;58.70
11836;DHT22;5977;51.972;7.640;2023-04-03T05:40:26;16.40;58.10
11836;DHT22;5977;51.972;7.640;2023-04-03T05:42:55;15.70;58.10
11836;DHT22;5977;51.972;7.640;2023-04-03T05:45:28;15.60;59.00
11836;DHT22;5977;51.972;7.640;2023-04-03T05:47:57;15.50;58.90
11836;DHT22;5977;51.972;7.640;2023-04-03T05:50:26;15.30;58.00
11836;DHT22;5977;51.972;7.640;2023-04-03T05:52:57;15.10;57.90
11836;DHT22;5977;51.972;7.640;2023-04-03T05:55:28;15.10;57.90
11836;DHT22;5977;51.972;7.640;2023-04-03T05:57:56;15.10;57.80
11836;DHT22;5977;51.972;7.640;2023-04-03T06:00:24;15.00;57.50
11836;DHT22;5977;51.972;7.640;2023-04-03T06:03:00;14.60;56.20
11836;DHT22;5977;51.972;7.640;2023-04-03T06:05:29;14.70;56.60
11836;DHT22;5977;51.972;7.640;2023-04-03T06:07:57;14.80;56.60
11836;DHT22;5977;51.972;7.640;2023-04-03T06:10:24;14.20;55.50
11836;DHT22;5977;51.972;7.640;2023-04-03T06:12:52;14.40;56.20
11836;DHT22;5977;51.972;7.640;2023-04-03T06:15:20;14.30;55.60
11836;DHT22;5977;51.972;7.640;2023-04-03T06:17:48;14.50;56.50
11836;DHT22;5977;51.972;7.640;2023-04-03T06:20:18;14.50;55.20
11836;DHT22;5977;51.972;7.640;2023-04-03T06:22:46;14.60;56.10
11836;DHT22;5977;51.972;7.640;2023-04-03T06:25:14;14.70;55.20
11836;DHT22;5977;51.972;7.640;2023-04-03T06:27:44;14.60;54.00
11836;DHT22;5977;51.972;7.640;2023-04-03T06:30:12;14.50;54.60
11836;DHT22;5977;51.972;7.640;2023-04-03T06:32:40;14.50;55.00
11836;DHT22;5977;51.972;7.640;2023-04-03T06:35:09;14.40;54.20
11836;DHT22;5977;51.972;7.640;2023-04-03T06:37:39;15.00;54.10
11836;DHT22;5977;51.972;7.640;2023-04-03T06:40:12;15.40;51.90
11836;DHT22;5977;51.972;7.640;2023-04-03T06:42:42;15.50;52.70
11836;DHT22;5977;51.972;7.640;2023-04-03T06:45:11;16.00;52.40
11836;DHT22;5977;51.972;7.640;2023-04-03T06:47:39;15.70;50.10
11836;DHT22;5977;51.972;7.640;2023-04-03T06:50:09;16.10;51.50
11836;DHT22;5977;51.972;7.640;2023-04-03T06:52:39;16.20;50.00
11836;DHT22;5977;51.972;7.640;2023-04-03T06:55:08;16.40;49.20
11836;DHT22;5977;51.972;7.640;2023-04-03T06:57:37;16.70;48.20
11836;DHT22;5977;51.972;7.640;2023-04-03T07:00:06;16.50;48.30
11836;DHT22;5977;51.972;7.640;2023-04-03T07:02:35;16.60;48.00
11836;DHT22;5977;51.972;7.640;2023-04-03T07:05:04;16.00;48.50
11836;DHT22;5977;51.972;7.640;2023-04-03T07:07:32;16.50;49.40
11836;DHT22;5977;51.972;7.640;2023-04-03T07:10:03;16.70;48.00
11836;DHT22;5977;51.972;7.640;2023-04-03T07:12:31;16.20;48.20
11836;DHT22;5977;51.972;7.640;2023-04-03T07:14:58;16.20;48.70
11836;DHT22;5977;51.972;7.640;2023-04-03T07:17:26;16.50;48.60
11836;DHT22;5977;51.972;7.640;2023-04-03T07:19:54;16.00;48.00
11836;DHT22;5977;51.972;7.640;2023-04-03T07:22:22;15.60;47.80
11836;DHT22;5977;51.972;7.640;2023-04-03T07:24:50;15.90;48.10
11836;DHT22;5977;51.972;7.640;2023-04-03T07:27:19;15.60;47.40
11836;DHT22;5977;51.972;7.640;2023-04-03T07:29:47;15.50;47.00
11836;DHT22;5977;51.972;7.640;2023-04-03T07:32:16;15.60;47.50
11836;DHT22;5977;51.972;7.640;2023-04-03T07:34:44;15.80;46.90
11836;DHT22;5977;51.972;7.640;2023-04-03T07:37:12;16.30;48.30
11836;DHT22;5977;51.972;7.640;2023-04-03T07:39:39;16.40;45.80
11836;DHT22;5977;51.972;7.640;2023-04-03T07:42:11;16.50;46.90
11836;DHT22;5977;51.972;7.640;2023-04-03T07:44:41;16.90;47.60
11836;DHT22;5977;51.972;7.640;2023-04-03T07:47:09;17.50;48.90
11836;DHT22;5977;51.972;7.640;2023-04-03T07:49:37;17.70;48.10
11836;DHT22;5977;51.972;7.640;2023-04-03T07:52:07;18.10;48.20
11836;DHT22;5977;51.972;7.640;2023-04-03T07:54:35;18.20;47.50
11836;DHT22;5977;51.972;7.640;2023-04-03T07:57:04;17.90;46.80
11836;DHT22;5977;51.972;7.640;2023-04-03T07:59:32;17.70;46.70
11836;DHT22;5977;51.972;7.640;2023-04-03T08:02:01;17.50;48.00
11836;DHT22;5977;51.972;7.640;2023-04-03T08:04:31;17.60;47.10
11836;DHT22;5977;51.972;7.640;2023-04-03T08:06:59;17.60;46.70
11836;DHT22;5977;51.972;7.640;2023-04-03T08:09:27;17.60;49.00
11836;DHT22;5977;51.972;7.640;2023-04-03T08:11:55;17.20;47.30
11836;DHT22;5977;51.972;7.640;2023-04-03T08:14:23;17.20;49.10
11836;DHT22;5977;51.972;7.640;2023-04-03T08:16:51;17.10;47.10
11836;DHT22;5977;51.972;7.640;2023-04-03T08:19:20;17.70;46.30
11836;DHT22;5977;51.972;7.640;2023-04-03T08:21:53;17.50;45.00
11836;DHT22;5977;51.972;7.640;2023-04-03T08:24:21;17.40;45.30
11836;DHT22;5977;51.972;7.640;2023-04-03T08:26:49;17.60;46.00
11836;DHT22;5977;51.972;7.640;2023-04-03T08:29:17;17.80;46.70
11836;DHT22;5977;51.972;7.640;2023-04-03T08:31:45;18.00;46.20
11836;DHT22;5977;51.972;7.640;2023-04-03T08:34:13;18.20;46.50
11836;DHT22;5977;51.972;7.640;2023-04-03T08:36:43;17.60;45.80
11836;DHT22;5977;51.972;7.640;2023-04-03T08:39:11;18.00;45.90
11836;DHT22;5977;51.972;7.640;2023-04-03T08:41:40;18.50;46.90
11836;DHT22;5977;51.972;7.640;2023-04-03T08:44:24;18.20;43.10
11836;DHT22;5977;51.972;7.640;2023-04-03T08:47:02;17.80;45.30
11836;DHT22;5977;51.972;7.640;2023-04-03T08:49:33;17.40;44.00
11836;DHT22;5977;51.972;7.640;2023-04-03T08:52:10;17.80;47.00
11836;DHT22;5977;51.972;7.640;2023-04-03T08:54:49;18.00;43.80
11836;DHT22;5977;51.972;7.640;2023-04-03T08:57:23;17.80;44.20
11836;DHT22;5977;51.972;7.640;2023-04-03T08:59:52;17.70;44.90
11836;DHT22;5977;51.972;7.640;2023-04-03T09:02:29;17.80;43.70
11836;DHT22;5977;51.972;7.640;2023-04-03T09:04:59;17.50;44.20
11836;DHT22;5977;51.972;7.640;2023-04-03T09:07:36;17.80;44.90
11836;DHT22;5977;51.972;7.640;2023-04-03T09:10:11;17.60;43.80
11836;DHT22;5977;51.972;7.640;2023-04-03T09:12:42;17.70;43.50
11836;DHT22;5977;51.972;7.640;2023-04-03T09:15:18;17.30;43.70
11836;DHT22;5977;51.972;7.640;2023-04-03T09:18:08;17.30;44.90
11836;DHT22;5977;51.972;7.640;2023-04-03T09:20:43;17.50;46.20
11836;DHT22;5977;51.972;7.640;2023-04-03T09:23:20;17.10;43.90
11836;DHT22;5977;51.972;7.640;2023-04-03T09:25:52;16.90;47.00
11836;DHT22;5977;51.972;7.640;2023-04-03T09:28:21;17.50;50.70
11836;DHT22;5977;51.972;7.640;2023-04-03T09:30:48;18.20;51.00
11836;DHT22;5977;51.972;7.640;2023-04-03T09:33:17;17.90;46.00
11836;DHT22;5977;51.972;7.640;2023-04-03T09:35:45;17.30;47.50
11836;DHT22;5977;51.972;7.640;2023-04-03T09:38:19;17.60;50.40
11836;DHT22;5977;51.972;7.640;2023-04-03T09:40:48;17.90;48.20
11836;DHT22;5977;51.972;7.640;2023-04-03T09:43:26;17.70;46.90
11836;DHT22;5977;51.972;7.640;2023-04-03T09:45:56;17.40;47.20
11836;DHT22;5977;51.972;7.640;2023-04-03T09:48:56;18.30;50.60
11836;DHT22;5977;51.972;7.640;2023-04-03T09:51:35;18.00;48.90
11836;DHT22;5977;51.972;7.640;2023-04-03T09:54:34;18.00;46.10
11836;DHT22;5977;51.972;7.640;2023-04-03T09:57:08;18.00;46.50
11836;DHT22;5977;51.972;7.640;2023-04-03T09:59:44;17.70;45.70
11836;DHT22;5977;51.972;7.640;2023-04-03T10:02:28;17.50;48.00
11836;DHT22;5977;51.972;7.640;2023-04-03T10:04:58;17.70;46.60
11836;DHT22;5977;51.972;7.640;2023-04-03T10:07:36;17.50;47.20
11836;DHT22;5977;51.972;7.640;2023-04-03T10:10:19;16.70;43.70
11836;DHT22;5977;51.972;7.640;2023-04-03T10:13:02;16.20;44.10
11836;DHT22;5977;51.972;7.640;2023-04-03T10:15:36;16.00;49.10
11836;DHT22;5977;51.972;7.640;2023-04-03T10:18:18;16.50;50.30
11836;DHT22;5977;51.972;7.640;2023-04-03T10:20:51;17.00;48.50
11836;DHT22;5977;51.972;7.640;2023-04-03T10:23:26;17.40;49.40
11836;DHT22;5977;51.972;7.640;2023-04-03T10:26:02;17.60;48.70
11836;DHT22;5977;51.972;7.640;2023-04-03T10:28:46;17.40;46.50
11836;DHT22;5977;51.972;7.640;2023-04-03T10:31:20;17.50;50.40
11836;DHT22;5977;51.972;7.640;2023-04-03T10:33:55;16.80;44.80
11836;DHT22;5977;51.972;7.640;2023-04-03T10:36:31;16.60;50.40
11836;DHT22;5977;51.972;7.640;2023-04-03T10:39:10;16.70;49.40
11836;DHT22;5977;51.972;7.640;2023-04-03T10:41:50;17.00;48.40
11836;DHT22;5977;51.972;7.640;2023-04-03T10:44:38;17.20;51.30
11836;DHT22;5977;51.972;7.640;2023-04-03T10:47:16;16.50;46.60
11836;DHT22;5977;51.972;7.640;2023-04-03T10:49:51;16.90;52.40
11836;DHT22;5977;51.972;7.640;2023-04-03T10:52:31;17.20;50.70
11836;DHT22;5977;51.972;7.640;2023-04-03T10:55:06;17.60;51.50
11836;DHT22;5977;51.972;7.640;2023-04-03T10:57:39;17.30;49.70
11836;DHT22;5977;51.972;7.640;2023-04-03T11:00:17;17.00;46.50
11836;DHT22;5977;51.972;7.640;2023-04-03T11:02:49;17.50;50.00
11836;DHT22;5977;51.972;7.640;2023-04-03T11:05:28;17.70;49.70
11836;DHT22;5977;51.972;7.640;2023-04-03T11:08:02;17.50;46.60
11836;DHT22;5977;51.972;7.640;2023-04-03T11:10:36;16.90;48.20
11836;DHT22;5977;51.972;7.640;2023-04-03T11:13:11;17.00;48.00
11836;DHT22;5977;51.972;7.640;2023-04-03T11:15:41;17.20;47.60
11836;DHT22;5977;51.972;7.640;2023-04-03T11:18:12;17.10;44.60
11836;DHT22;5977;51.972;7.640;2023-04-03T11:20:44;15.90;43.40
11836;DHT22;5977;51.972;7.640;2023-04-03T11:23:20;17.00;50.90
11836;DHT22;5977;51.972;7.640;2023-04-03T11:25:53;18.40;49.90
11836;DHT22;5977;51.972;7.640;2023-04-03T11:28:22;19.10;48.90
11836;DHT22;5977;51.972;7.640;2023-04-03T11:30:56;19.40;48.60
11836;DHT22;5977;51.972;7.640;2023-04-03T11:33:32;19.80;48.80
11836;DHT22;5977;51.972;7.640;2023-04-03T11:36:07;19.90;48.70
11836;DHT22;5977;51.972;7.640;2023-04-03T11:38:53;20.10;49.00
11836;DHT22;5977;51.972;7.640;2023-04-03T11:41:25;20.20;49.40
11836;DHT22;5977;51.972;7.640;2023-04-03T11:44:00;20.20;49.50
11836;DHT22;5977;51.972;7.640;2023-04-03T11:46:51;20.30;49.80
11836;DHT22;5977;51.972;7.640;2023-04-03T11:49:52;20.30;49.90
11836;DHT22;5977;51.972;7.640;2023-04-03T11:52:58;20.40;50.10
11836;DHT22;5977;51.972;7.640;2023-04-03T11:55:52;20.40;50.30
11836;DHT22;5977;51.972;7.640;2023-04-03T11:58:21;20.40;50.60
11836;DHT22;5977;51.972;7.640;2023-04-03T12:00:53;20.50;50.80
11836;DHT22;5977;51.972;7.640;2023-04-03T12:12:36;20.50;51.20
11836;DHT22;5977;51.972;7.640;2023-04-03T12:15:24;20.50;51.50
11836;DHT22;5977;51.972;7.640;2023-04-03T12:17:54;20.60;51.90
11836;DHT22;5977;51.972;7.640;2023-04-03T12:23:32;20.60;51.90
11836;DHT22;5977;51.972;7.640;2023-04-03T12:26:18;20.60;51.80
11836;DHT22;5977;51.972;7.640;2023-04-03T12:28:50;20.60;51.80
11836;DHT22;5977;51.972;7.640;2023-04-03T12:31:20;20.60;52.10
11836;DHT22;5977;51.972;7.640;2023-04-03T12:34:05;20.60;52.30
11836;DHT22;5977;51.972;7.640;2023-04-03T12:36:44;20.60;52.40
11836;DHT22;5977;51.972;7.640;2023-04-03T12:42:15;20.70;52.60
11836;DHT22;5977;51.972;7.640;2023-04-03T12:44:50;20.70;52.70
11836;DHT22;5977;51.972;7.640;2023-04-03T12:47:27;20.60;52.50
11836;DHT22;5977;51.972;7.640;2023-04-03T12:49:57;20.60;52.70
11836;DHT22;5977;51.972;7.640;2023-04-03T12:52:33;20.70;52.80
11836;DHT22;5977;51.972;7.640;2023-04-03T12:55:07;20.60;52.80
11836;DHT22;5977;51.972;7.640;2023-04-03T12:57:36;20.70;53.00
11836;DHT22;5977;51.972;7.640;2023-04-03T13:00:20;20.70;52.90
11836;DHT22;5977;51.972;7.640;2023-04-03T13:02:48;20.70;53.10
11836;DHT22;5977;51.972;7.640;2023-04-03T13:05:19;20.70;53.10
11836;DHT22;5977;51.972;7.640;2023-04-03T13:07:53;20.70;53.00
11836;DHT22;5977;51.972;7.640;2023-04-03T13:10:21;20.70;53.20
11836;DHT22;5977;51.972;7.640;2023-04-03T13:12:51;20.70;53.40
11836;DHT22;5977;51.972;7.640;2023-04-03T13:15:21;20.70;53.40
11836;DHT22;5977;51.972;7.640;2023-04-03T13:17:51;20.70;53.30
11836;DHT22;5977;51.972;7.640;2023-04-03T13:20:24;20.70;53.70
11836;DHT22;5977;51.972;7.640;2023-04-03T13:22:58;20.50;54.10
11836;DHT22;5977;51.972;7.640;2023-04-03T13:25:30;20.60;54.20
11836;DHT22;5977;51.972;7.640;2023-04-03T13:28:00;20.70;54.50
11836;DHT22;5977;51.972;7.640;2023-04-03T13:30:40;20.80;54.40
11836;DHT22;5977;51.972;7.640;2023-04-03T13:33:20;20.80;54.20
11836;DHT22;5977;51.972;7.640;2023-04-03T13:35:55;20.90;54.30
11836;DHT22;5977;51.972;7.640;2023-04-03T13:38:25;20.90;54.30
11836;DHT22;5977;51.972;7.640;2023-04-03T13:40:56;21.00;54.60
11836;DHT22;5977;51.972;7.640;2023-04-03T13:43:25;21.00;54.70
11836;DHT22;5977;51.972;7.640;2023-04-03T13:45:59;20.90;54.70
11836;DHT22;5977;51.972;7.640;2023-04-03T13:48:37;20.80;54.80
11836;DHT22;5977;51.972;7.640;2023-04-03T13:51:17;20.70;55.10
11836;DHT22;5977;51.972;7.640;2023-04-03T13:53:48;20.70;55.30
11836;DHT22;5977;51.972;7.640;2023-04-03T13:56:21;20.60;55.30
11836;DHT22;5977;51.972;7.640;2023-04-03T13:58:56;20.60;55.40
11836;DHT22;5977;51.972;7.640;2023-04-03T14:01:25;20.60;55.50
11836;DHT22;5977;51.972;7.640;2023-04-03T14:03:55;20.50;56.20
11836;DHT22;5977;51.972;7.640;2023-04-03T14:06:25;18.40;51.80
11836;DHT22;5977;51.972;7.640;2023-04-03T14:08:53;17.60;52.30
11836;DHT22;5977;51.972;7.640;2023-04-03T14:11:24;17.00;51.70
11836;DHT22;5977;51.972;7.640;2023-04-03T14:13:54;16.30;51.10
11836;DHT22;5977;51.972;7.640;2023-04-03T14:16:26;16.10;51.20
11836;DHT22;5977;51.972;7.640;2023-04-03T14:18:55;15.90;50.00
11836;DHT22;5977;51.972;7.640;2023-04-03T14:21:25;15.70;49.90
11836;DHT22;5977;51.972;7.640;2023-04-03T14:23:52;15.90;49.90
11836;DHT22;5977;51.972;7.640;2023-04-03T14:26:22;15.60;49.00
11836;DHT22;5977;51.972;7.640;2023-04-03T14:28:52;15.40;49.60
11836;DHT22;5977;51.972;7.640;2023-04-03T14:31:20;15.50;50.00
11836;DHT22;5977;51.972;7.640;2023-04-03T14:33:49;15.40;48.60
11836;DHT22;5977;51.972;7.640;2023-04-03T14:36:18;15.30;48.40
11836;DHT22;5977;51.972;7.640;2023-04-03T14:38:49;15.40;48.50
11836;DHT22;5977;51.972;7.640;2023-04-03T14:41:19;15.80;49.30
11836;DHT22;5977;51.972;7.640;2023-04-03T14:43:48;15.90;47.70
11836;DHT22;5977;51.972;7.640;2023-04-03T14:46:18;15.40;47.40
11836;DHT22;5977;51.972;7.640;2023-04-03T14:48:47;14.90;47.20
11836;DHT22;5977;51.972;7.640;2023-04-03T14:51:16;14.90;48.20
11836;DHT22;5977;51.972;7.640;2023-04-03T14:53:44;14.80;48.10
11836;DHT22;5977;51.972;7.640;2023-04-03T14:56:23;15.10;47.80
11836;DHT22;5977;51.972;7.640;2023-04-03T14:58:55;15.30;46.40
11836;DHT22;5977;51.972;7.640;2023-04-03T15:01:23;15.20;46.00
11836;DHT22;5977;51.972;7.640;2023-04-03T15:03:52;15.00;46.30
11836;DHT22;5977;51.972;7.640;2023-04-03T15:06:20;15.20;46.00
11836;DHT22;5977;51.972;7.640;2023-04-03T15:08:48;14.90;44.90
11836;DHT22;5977;51.972;7.640;2023-04-03T15:11:18;15.40;45.90
11836;DHT22;5977;51.972;7.640;2023-04-03T15:13:46;15.50;44.80
11836;DHT22;5977;51.972;7.640;2023-04-03T15:16:16;15.20;44.40
11836;DHT22;5977;51.972;7.640;2023-04-03T15:18:45;15.10;44.60
11836;DHT22;5977;51.972;7.640;2023-04-03T15:21:14;15.00;45.00
11836;DHT22;5977;51.972;7.640;2023-04-03T15:23:42;14.80;44.80
11836;DHT22;5977;51.972;7.640;2023-04-03T15:26:10;14.90;45.80
11836;DHT22;5977;51.972;7.640;2023-04-03T15:28:40;14.00;42.20
11836;DHT22;5977;51.972;7.640;2023-04-03T15:31:09;13.00;44.30
11836;DHT22;5977;51.972;7.640;2023-04-03T15:33:37;14.90;49.70
11836;DHT22;5977;51.972;7.640;2023-04-03T15:36:06;16.70;47.80
11836;DHT22;5977;51.972;7.640;2023-04-03T15:38:53;17.80;46.30
11836;DHT22;5977;51.972;7.640;2023-04-03T15:41:21;18.60;45.40
11836;DHT22;5977;51.972;7.640;2023-04-03T15:43:51;19.00;45.10
11836;DHT22;5977;51.972;7.640;2023-04-03T15:46:19;19.30;45.20
11836;DHT22;5977;51.972;7.640;2023-04-03T15:48:47;19.30;46.80
11836;DHT22;5977;51.972;7.640;2023-04-03T15:51:16;19.60;47.30
11836;DHT22;5977;51.972;7.640;2023-04-03T15:53:43;19.70;47.40
11836;DHT22;5977;51.972;7.640;2023-04-03T15:56:11;19.90;47.60
11836;DHT22;5977;51.972;7.640;2023-04-03T15:58:39;20.00;47.60
11836;DHT22;5977;51.972;7.640;2023-04-03T16:01:11;20.10;47.80
11836;DHT22;5977;51.972;7.640;2023-04-03T16:03:40;20.20;48.10
11836;DHT22;5977;51.972;7.640;2023-04-03T16:06:15;20.20;48.30
11836;DHT22;5977;51.972;7.640;2023-04-03T16:08:44;20.30;48.40
11836;DHT22;5977;51.972;7.640;2023-04-03T16:11:12;20.20;48.60
11836;DHT22;5977;51.972;7.640;2023-04-03T16:13:40;20.30;49.50
11836;DHT22;5977;51.972;7.640;2023-04-03T16:16:10;20.30;49.80
11836;DHT22;5977;51.972;7.640;2023-04-03T16:18:38;20.40;50.70
11836;DHT22;5977;51.972;7.640;2023-04-03T16:21:06;20.50;50.90
11836;DHT22;5977;51.972;7.640;2023-04-03T16:23:35;20.50;51.50
11836;DHT22;5977;51.972;7.640;2023-04-03T16:26:03;20.50;51.40